createdAt,value
2023-05-13T00:03:42.116Z,6.00
2023-05-13T00:08:47.770Z,6.23
2023-05-13T00:13:53.140Z,6.17
2023-05-13T00:18:58.760Z,5.93
2023-05-13T00:24:04.043Z,6.03
2023-05-13T00:29:09.519Z,6.13
2023-05-13T00:34:14.739Z,6.00
2023-05-13T00:39:19.939Z,5.87
2023-05-13T00:44:25.099Z,5.23
2023-05-13T00:49:30.407Z,6.17
2023-05-13T00:54:36.153Z,5.70
2023-05-13T00:59:41.277Z,5.93
2023-05-13T01:04:52.239Z,5.77
2023-05-13T01:10:03.469Z,6.83
2023-05-13T01:15:11.334Z,5.73
2023-05-13T01:20:19.776Z,6.50
2023-05-13T01:25:25.931Z,6.07
2023-05-13T01:30:32.125Z,4.87
2023-05-13T01:35:37.319Z,5.83
2023-05-13T01:40:43.661Z,5.73
2023-05-13T01:45:48.904Z,5.80
2023-05-13T01:50:54.172Z,5.17
2023-05-13T01:55:59.374Z,6.10
2023-05-13T02:01:04.669Z,7.33
2023-05-13T02:06:09.899Z,5.57
2023-05-13T02:11:15.664Z,5.77
2023-05-13T02:16:21.590Z,6.13
2023-05-13T02:21:27.113Z,5.33
2023-05-13T02:26:32.361Z,5.67
2023-05-13T02:31:37.638Z,5.13
2023-05-13T02:36:42.930Z,6.33
2023-05-13T02:41:48.169Z,5.03
2023-05-13T02:46:53.289Z,5.57
2023-05-13T02:51:58.566Z,5.30
2023-05-13T02:57:03.816Z,4.67
2023-05-13T03:02:09.372Z,5.37
2023-05-13T03:07:14.517Z,5.90
2023-05-13T03:12:20.142Z,5.77
2023-05-13T03:17:26.058Z,6.13
2023-05-13T03:22:32.175Z,5.30
2023-05-13T03:27:37.674Z,4.73
2023-05-13T03:32:42.996Z,5.33
2023-05-13T03:37:48.215Z,4.97
2023-05-13T03:42:53.538Z,5.27
2023-05-13T03:47:58.915Z,4.73
2023-05-13T03:53:04.960Z,4.33
2023-05-13T03:58:17.177Z,4.83
2023-05-13T04:03:26.364Z,5.27
2023-05-13T04:08:31.469Z,4.27
2023-05-13T04:13:37.523Z,5.03
2023-05-13T04:18:42.666Z,6.23
2023-05-13T04:23:48.739Z,4.83
2023-05-13T04:28:53.884Z,4.87
2023-05-13T04:33:59.060Z,5.53
2023-05-13T04:39:04.187Z,4.87
2023-05-13T04:44:09.448Z,4.80
2023-05-13T04:49:14.603Z,4.40
2023-05-13T04:54:20.359Z,4.37
2023-05-13T04:59:25.670Z,4.93
2023-05-13T05:04:30.938Z,6.13
2023-05-13T05:09:36.097Z,5.23
2023-05-13T05:14:42.640Z,5.50
2023-05-13T05:19:49.486Z,5.83
2023-05-13T05:24:55.512Z,7.20
2023-05-13T05:30:00.736Z,7.17
2023-05-13T05:35:06.763Z,5.83
2023-05-13T05:40:12.523Z,5.43
2023-05-13T05:45:17.891Z,6.07
2023-05-13T05:50:23.211Z,6.13
2023-05-13T05:55:29.142Z,4.77
2023-05-13T06:00:36.494Z,3.97
2023-05-13T06:05:46.125Z,5.07
2023-05-13T06:10:56.007Z,4.63
2023-05-13T06:16:02.098Z,4.30
2023-05-13T06:21:08.907Z,4.03
2023-05-13T06:26:14.844Z,3.30
2023-05-13T06:31:20.083Z,3.83
2023-05-13T06:36:25.573Z,4.03
2023-05-13T06:41:30.885Z,4.43
2023-05-13T06:46:36.321Z,4.43
2023-05-13T06:51:41.613Z,4.20
2023-05-13T06:56:46.714Z,4.23
2023-05-13T07:01:51.762Z,4.50
2023-05-13T07:06:57.742Z,4.20
2023-05-13T07:12:03.097Z,4.23
2023-05-13T07:17:08.526Z,4.33
2023-05-13T07:22:14.017Z,4.67
2023-05-13T07:27:19.222Z,4.30
2023-05-13T07:32:24.359Z,4.58
2023-05-13T07:37:29.742Z,3.60
2023-05-13T07:42:35.131Z,3.72
2023-05-13T07:47:42.942Z,3.37
2023-05-13T07:52:48.975Z,3.85
2023-05-13T07:57:54.302Z,3.80
2023-05-13T08:03:05.614Z,4.83
2023-05-13T08:08:10.990Z,3.45
2023-05-13T08:13:16.271Z,3.70
2023-05-13T08:18:21.556Z,2.87
2023-05-13T08:23:43.573Z,2.98
2023-05-13T08:28:34.852Z,3.15
2023-05-13T08:33:48.810Z,2.95
2023-05-13T08:38:57.686Z,2.00
2023-05-13T08:44:06.995Z,2.58
2023-05-13T08:49:13.335Z,2.60
2023-05-13T08:54:23.815Z,2.02
2023-05-13T08:59:28.115Z,2.05
2023-05-13T09:04:37.015Z,2.10
2023-05-13T09:09:45.865Z,2.40
2023-05-13T09:14:51.654Z,1.90
2023-05-13T09:19:57.058Z,2.47
2023-05-13T09:25:02.882Z,2.12
2023-05-13T09:30:09.145Z,2.50
2023-05-13T09:35:17.362Z,2.20
2023-05-13T09:40:22.772Z,1.62
2023-05-13T09:45:28.493Z,2.00
2023-05-13T09:50:33.780Z,2.05
2023-05-13T09:55:39.069Z,2.08
2023-05-13T10:00:45.569Z,2.08
2023-05-13T10:05:52.557Z,2.10
2023-05-13T10:10:59.117Z,1.62
2023-05-13T10:16:06.021Z,2.33
2023-05-13T10:21:12.224Z,1.70
2023-05-13T10:26:22.195Z,1.75
2023-05-13T10:31:31.723Z,2.02
2023-05-13T10:36:56.247Z,1.82
2023-05-13T10:42:29.121Z,2.10
2023-05-13T10:47:35.558Z,1.62
2023-05-13T10:52:50.189Z,1.77
2023-05-13T10:58:16.300Z,1.77
2023-05-13T11:03:31.894Z,2.17
2023-05-13T11:08:46.104Z,1.47
2023-05-13T11:14:22.572Z,1.70
2023-05-13T11:19:48.596Z,1.17
2023-05-13T11:25:09.465Z,1.47
2023-05-13T11:30:26.919Z,1.52
2023-05-13T11:35:38.385Z,1.15
2023-05-13T11:40:50.248Z,1.32
2023-05-13T11:45:57.007Z,1.20
2023-05-13T11:51:02.421Z,1.70
2023-05-13T11:56:11.879Z,1.25
2023-05-13T12:01:17.046Z,1.45
2023-05-13T12:06:24.767Z,1.47
2023-05-13T12:11:30.143Z,1.80
2023-05-13T12:16:35.451Z,1.30
2023-05-13T12:21:40.752Z,1.67
2023-05-13T12:26:46.966Z,1.60
2023-05-13T12:32:06.840Z,1.65
2023-05-13T12:37:13.899Z,1.25
2023-05-13T12:42:19.832Z,1.65
2023-05-13T12:47:25.018Z,1.70
2023-05-13T12:52:30.187Z,1.85
2023-05-13T12:57:35.418Z,1.27
2023-05-13T13:02:41.729Z,1.27
2023-05-13T13:07:47.245Z,1.27
2023-05-13T13:12:52.395Z,1.00
2023-05-13T13:17:57.661Z,1.10
2023-05-13T13:23:02.724Z,1.40
2023-05-13T13:28:08.473Z,1.57
2023-05-13T13:33:16.415Z,1.22
2023-05-13T13:38:21.566Z,1.52
2023-05-13T13:43:39.513Z,3.15
2023-05-13T13:48:44.600Z,1.20
2023-05-13T13:53:51.037Z,1.52
2023-05-13T13:58:56.143Z,1.62
2023-05-13T14:04:15.848Z,1.25
2023-05-13T14:09:20.945Z,1.45
2023-05-13T14:14:26.074Z,1.40
2023-05-13T14:19:31.217Z,1.22
2023-05-13T14:24:36.416Z,1.77
2023-05-13T14:29:42.258Z,1.47
2023-05-13T14:34:47.407Z,1.00
2023-05-13T14:39:52.631Z,1.60
2023-05-13T14:44:57.787Z,1.57
2023-05-13T14:50:03.008Z,1.37
2023-05-13T14:55:08.429Z,1.50
2023-05-13T15:00:14.297Z,1.60
2023-05-13T15:05:19.579Z,8.05
2023-05-13T15:10:24.810Z,9.93
2023-05-13T15:15:29.966Z,2.83
2023-05-13T15:20:35.107Z,3.40
2023-05-13T15:25:40.312Z,2.98
2023-05-13T15:30:46.261Z,1.30
2023-05-13T15:35:52.942Z,2.70
2023-05-13T15:40:58.077Z,1.82
2023-05-13T15:46:03.539Z,1.20
2023-05-13T15:51:09.240Z,1.98
2023-05-13T15:56:14.593Z,1.32
2023-05-13T16:01:19.923Z,1.67
2023-05-13T16:06:25.230Z,1.17
2023-05-13T16:11:30.922Z,1.62
2023-05-13T16:16:36.233Z,1.37
2023-05-13T16:21:44.542Z,2.17
2023-05-13T16:26:49.737Z,1.80
2023-05-13T16:31:56.896Z,1.45
2023-05-13T16:37:02.407Z,2.22
2023-05-13T16:42:07.860Z,1.85
2023-05-13T16:47:13.275Z,1.98
2023-05-13T16:52:18.655Z,1.50
2023-05-13T16:57:24.014Z,1.70
2023-05-13T17:08:42.223Z,6.90
2023-05-13T17:13:47.566Z,17.37
2023-05-13T17:18:52.777Z,1.90
2023-05-13T17:24:03.849Z,3.23
2023-05-13T17:29:11.850Z,2.97
2023-05-13T17:34:18.853Z,4.77
2023-05-13T17:39:24.492Z,3.40
2023-05-13T17:44:29.693Z,2.47
2023-05-13T17:49:34.900Z,2.57
2023-05-13T17:54:40.338Z,5.47
2023-05-13T17:59:45.601Z,2.73
2023-05-13T18:04:51.299Z,1.63
2023-05-13T18:09:56.472Z,2.70
2023-05-13T18:15:04.904Z,4.20
2023-05-13T18:20:10.600Z,1.90
2023-05-13T18:25:21.851Z,2.83
2023-05-13T18:30:27.170Z,3.63
2023-05-13T18:35:32.644Z,3.57
2023-05-13T18:40:39.364Z,3.50
2023-05-13T18:45:50.358Z,2.53
2023-05-13T18:50:57.236Z,2.30
2023-05-13T18:56:31.467Z,2.20
2023-05-13T19:01:36.799Z,10.97
2023-05-13T19:06:43.718Z,15.97
2023-05-13T19:11:49.014Z,12.50
2023-05-13T19:16:54.383Z,7.83
2023-05-13T19:21:59.736Z,5.37
2023-05-13T19:27:05.039Z,4.37
2023-05-13T19:32:10.378Z,3.93
2023-05-13T19:37:16.245Z,3.37
2023-05-13T19:42:21.965Z,3.10
2023-05-13T19:47:28.141Z,2.57
2023-05-13T19:52:34.052Z,4.10
2023-05-13T19:57:42.438Z,3.13
2023-05-13T20:02:47.891Z,4.07
2023-05-13T20:07:53.030Z,3.47
2023-05-13T20:13:00.560Z,3.07
2023-05-13T20:18:06.103Z,3.67
2023-05-13T20:23:12.600Z,3.93
2023-05-13T20:28:17.897Z,4.20
2023-05-13T20:33:23.434Z,3.90
2023-05-13T20:38:29.144Z,4.13
2023-05-13T20:43:36.687Z,5.13
2023-05-13T20:48:41.825Z,5.00
2023-05-13T20:53:47.506Z,4.50
2023-05-13T20:58:53.517Z,5.10
2023-05-13T21:03:58.802Z,5.20
2023-05-13T21:09:04.362Z,4.20
2023-05-13T21:14:09.586Z,4.60
2023-05-13T21:19:25.533Z,5.07
2023-05-13T21:24:30.692Z,4.83
2023-05-13T21:29:35.958Z,4.63
2023-05-13T21:34:41.229Z,4.47
2023-05-13T21:39:46.943Z,4.50
2023-05-13T21:44:52.168Z,5.43
2023-05-13T21:49:57.295Z,5.70
2023-05-13T21:55:02.424Z,5.73
2023-05-13T22:00:10.823Z,4.70
2023-05-13T22:05:16.616Z,5.33
2023-05-13T22:10:21.894Z,4.90
2023-05-13T22:15:27.728Z,5.33
2023-05-13T22:20:32.923Z,5.00
2023-05-13T22:25:38.071Z,4.80
2023-05-13T22:30:44.752Z,5.23
2023-05-13T22:35:50.562Z,6.20
2023-05-13T22:40:56.606Z,5.90
2023-05-13T22:46:01.757Z,6.10
2023-05-13T22:51:06.886Z,5.77
2023-05-13T22:56:12.035Z,5.57
2023-05-13T23:01:17.333Z,6.17
2023-05-13T23:06:22.419Z,7.17
2023-05-13T23:11:27.559Z,7.13
2023-05-13T23:16:32.780Z,6.17
2023-05-13T23:21:38.150Z,7.10
2023-05-13T23:26:47.122Z,6.23
2023-05-13T23:31:51.188Z,6.17
2023-05-13T23:36:56.961Z,7.33
2023-05-13T23:42:02.214Z,7.73
2023-05-13T23:47:07.427Z,6.83
2023-05-13T23:52:12.495Z,5.70
2023-05-13T23:57:17.656Z,5.73
